Portada
METAR-TAF:

METAR-TAF

Aeroports :

Fort Lauderdale, Florida, Estats Units d'Amèrica

latitud: 26-04-05N, longitud: 080-09-09W, altitud: 3 m

Observació

L'informe es va fer fa 30 minuts, a les 21:53 UTC
Vent 8 kt del Nord
Temperatura 19°C
Humitat 43%
Pressió 1022 hPa
Visibilitat: 16.1 km
Cel clar

METAR: KFLL 282153Z 35008KT 10SM CLR 19/06 A3018 RMK AO2 SLP219 T01890056

Hora: 17:23 (22:23 UTC)

Pronòstic

L'informe es va fer fa 1 hora i 25 minuts, a les 20:58 UTC
Pronòstic vàlid del 28 a les 21 UTC al 29 a les 24 UTC
Vent 13 kt del Nord/Nord-Oest amb ràfegues de 20 kt
Visibilitat: 10 km
Cel clar
A partir de les 29 a les 0000 UTC
Vent 6 kt del Oest/Nord-Oest
Visibilitat: 10 km
Cel clar
A partir de les 29 a les 1400 UTC
Vent 12 kt del Nord-Oest
Visibilitat: 10 km
Escasses núvols a una alçada de 3000 ft

TAF: KFLL 282058Z 2821/2924 33013G20KT P6SM SKC FM290000 30006KT P6SM SKC FM291400 32012KT P6SM FEW030

Observacions i pronòstics meteorològics de més de 4000 aeroports (METAR i TAF).

Les estacions disponibles són els punts grocs i vermells al mapa.

Posi el ratolí al punt desitjat per veure el nom de l'estació.

Feu clic per veure les observacions i els pronòstics meteorològics.

Per canviar el mapa: feu clic els botons verds amb una creu de color negre per apropar; al botó verd amb un guió per allunyar la imatge; o en les fletxes verdes per a mapes adjacents.


METAR-TAF: